Karnet, Western Australia

12:04 PM AWST on September 25, 2016 (GMT +0800)
Secret Harbour | | Change Station

Elev 15 ft 32.40 °S, 115.76 °E | Updated 1 minute ago

Mostly Cloudy
Mostly Cloudy
59.7 °F
Feels Like 59.7 °F
N
9.0
Wind Variable Wind from South
Gusts 18.0 mph

Today
High -- | Low -- °F
--% Chance of Precip.
Yesterday
High -- | Low -- °F
Precip. -- in
Pressure 30.06 in
Visibility 6.2 miles
Clouds Scattered Clouds 2700 ft
Mostly Cloudy 4300 ft
Dew Point 38 °F
Humidity 45%
Rainfall 0.05 in
Snow Depth Not available.
6:01 AM 6:14 PM
Waning Crescent, 31% visible
METAR YPEA 250400Z AUTO 18005KT 140V210 9999 // SCT027 BKN043 15/10 Q1018
Pressure 30.06 in
Visibility 6.2 miles
Clouds Scattered Clouds 2700 ft
Mostly Cloudy 4300 ft
Dew Point 38 °F
Humidity 45%
Rainfall 0.05 in
Snow Depth Not available.
6:01 AM 6:14 PM
Waning Crescent, 31% visible
METAR YPEA 250400Z AUTO 18005KT 140V210 9999 // SCT027 BKN043 15/10 Q1018

10-Day Weather Forecast

Almanac

Astronomy

Sep. 25, 2016 Rise Set
Actual Time
Civil Twilight
Nautical Twilight
Astronomical Twilight
Moon
Length of Visible Light
Length of Day
Tomorrow will be .
, % of the Moon is Illuminated

Today's Extremes

Country Highs Country Lows

Community

WunderPhotos

Upload Photos

1,941,543 photos uploaded!

WunderBlog® & News

Nearby

Air Quality

  Air Quality AQ Index Pollutant
Not available.

Snow Depth

Station Depth Elevation

Earthquake Activity

City Distance Mag. Time & Date
Minimum magnitude displayed is 2.5.

Coastal Water Temperatures

Place Temperature

Stations

Nearby Weather Stations

Station Location Temp. Windchill Dew Point Humidity Wind Precip. Elev Updated Type